Terminal Aerodrome Forecast
Issued by NWS

Home | Current Version | Previous Version | Text Only | Print | Product List | Glossary On
Versions: 1 2 3 4 5 6 7 8 9 10 11 12 13 14 15 16 17 18 19 20 21 22 23 24 25 26 27 28 29 30
149
FTUS42 KCAE 302337
TAFCUB
TAF
KCUB 302337Z 0100/0124 18008KT P6SM FEW050 BKN200
     FM010600 19008KT P6SM BKN015
     FM010900 21010KT P6SM BKN008
     FM011400 21014G20KT P6SM VCSH BKN015
     FM012000 21015G25KT P6SM VCTS SCT020CB BKN050=

USA.gov is the U.S. government's official web portal to all federal, state and local government web resources and services.